Time;durP1;ratioP1;P1;durP2;ratioP2;P2;SDS_P1;SDS_P2;PMS_P1;PMS_P2;Temp;Humidity;BMP_temperature;BMP_pressure;BME280_temperature;BME280_humidity;BME280_pressure;Samples;Min_cycle;Max_cycle;Signal;HPM_P1;HPM_P2
2023/05/27 00:01:36;;;;;;;;;;;;;;;18.94;64.85;99377.13;5074390;28;20281;-77
2023/05/27 00:04:01;;;;;;;;;;;;;;;18.91;65.17;99377.59;5074347;28;19914;-77
2023/05/27 00:06:27;;;;;;;;;;;;;;;18.89;64.71;99377.84;5074172;28;19902;-77
2023/05/27 00:08:52;;;;;;;;;;;;;;;18.87;65.89;99376.47;5074058;28;20023;-76
2023/05/27 00:11:17;;;;;;;;;;;;;;;18.87;65.63;99379.13;5074450;28;19915;-76
2023/05/27 00:13:42;;;;;;;;;;;;;;;18.86;64.61;99374.81;5074246;28;19912;-77
2023/05/27 00:16:08;;;;;;;;;;;;;;;18.88;65.41;99380.75;5074446;28;19959;-77
2023/05/27 00:18:35;;;;;;;;;;;;;;;18.91;65.42;99378.44;5074508;28;19962;-77
2023/05/27 00:21:01;;;;;;;;;;;;;;;18.92;65.49;99377.38;5073077;28;20317;-76
2023/05/27 00:23:26;;;;;;;;;;;;;;;18.93;65.16;99370.16;5073720;28;19905;-77
2023/05/27 00:25:51;;;;;;;;;;;;;;;18.90;64.92;99374.13;5074073;28;19915;-77
2023/05/27 00:28:16;;;;;;;;;;;;;;;18.93;64.38;99375.50;5074098;28;19909;-77
2023/05/27 00:30:42;;;;;;;;;;;;;;;18.94;64.83;99369.13;5074056;28;19912;-76
2023/05/27 00:33:07;;;;;;;;;;;;;;;18.96;64.32;99365.16;5074255;28;19928;-77
2023/05/27 00:35:33;;;;;;;;;;;;;;;19.00;64.36;99363.63;5074162;28;19916;-77
2023/05/27 00:37:58;;;;;;;;;;;;;;;19.00;64.70;99366.31;5074255;28;19934;-77
2023/05/27 00:40:24;;;;;;;;;;;;;;;19.02;64.00;99358.84;5072753;28;19908;-76
2023/05/27 00:42:50;;;;;;;;;;;;;;;18.98;64.23;99357.69;5073889;28;20423;-76
2023/05/27 00:45:15;;;;;;;;;;;;;;;18.96;64.48;99367.81;5073697;28;19908;-77
2023/05/27 00:47:40;;;;;;;;;;;;;;;18.97;64.27;99363.28;5074275;28;20004;-76
2023/05/27 00:50:07;;;;;;;;;;;;;;;18.98;64.76;99363.06;5074715;28;19916;-76
2023/05/27 00:52:33;;;;;;;;;;;;;;;18.96;64.19;99354.44;5073845;28;20005;-77
2023/05/27 00:54:59;;;;;;;;;;;;;;;18.95;63.90;99358.16;5073819;28;19962;-76
2023/05/27 00:57:25;;;;;;;;;;;;;;;18.93;64.32;99357.59;5073750;28;19912;-77
2023/05/27 00:59:51;;;;;;;;;;;;;;;18.95;64.34;99352.00;5073597;28;19965;-76
2023/05/27 01:02:16;;;;;;;;;;;;;;;18.93;63.96;99354.09;5073281;28;20359;-77
2023/05/27 01:04:42;;;;;;;;;;;;;;;18.95;64.07;99352.81;5073198;28;19908;-77
2023/05/27 01:07:26;;;;;;;;;;;;;;;18.97;63.62;99350.72;5071965;28;20432;-76
2023/05/27 01:09:55;;;;;;;;;;;;;;;18.97;63.32;99348.03;5072921;28;19913;-75
2023/05/27 01:12:26;;;;;;;;;;;;;;;18.95;64.22;99352.81;5072995;28;19908;-76
2023/05/27 01:14:54;;;;;;;;;;;;;;;18.94;63.89;99345.03;5071725;28;20367;-77
2023/05/27 01:17:20;;;;;;;;;;;;;;;18.93;63.71;99351.44;5072968;28;19908;-77
2023/05/27 01:19:46;;;;;;;;;;;;;;;18.95;63.21;99354.69;5071598;28;20351;-76
2023/05/27 01:22:13;;;;;;;;;;;;;;;18.98;63.11;99357.69;5072789;28;19965;-77
2023/05/27 01:24:38;;;;;;;;;;;;;;;18.96;63.18;99354.44;5072734;28;19908;-77
2023/05/27 01:27:03;;;;;;;;;;;;;;;18.91;63.28;99348.19;5072668;28;20042;-77
2023/05/27 01:29:29;;;;;;;;;;;;;;;18.92;63.23;99347.13;5072420;28;20377;-77
2023/05/27 01:31:57;;;;;;;;;;;;;;;18.87;63.22;99347.84;5072819;28;19915;-76
2023/05/27 01:34:33;;;;;;;;;;;;;;;18.86;63.35;99353.44;5071830;28;20005;-77
2023/05/27 01:37:02;;;;;;;;;;;;;;;18.86;62.99;99354.25;5072547;28;19909;-77
2023/05/27 01:39:27;;;;;;;;;;;;;;;18.85;63.05;99351.81;5071070;28;19912;-76
2023/05/27 01:41:53;;;;;;;;;;;;;;;18.82;62.81;99349.59;5072314;28;19904;-76
2023/05/27 01:44:18;;;;;;;;;;;;;;;18.82;62.87;99349.59;5072345;28;19912;-77
2023/05/27 01:46:44;;;;;;;;;;;;;;;18.81;62.85;99347.97;5071037;28;19912;-77
2023/05/27 01:49:09;;;;;;;;;;;;;;;18.81;62.79;99356.81;5072188;28;19916;-77
2023/05/27 01:51:35;;;;;;;;;;;;;;;18.79;62.47;99363.44;5072449;28;19947;-76
2023/05/27 01:54:00;;;;;;;;;;;;;;;18.73;62.60;99359.84;5072698;28;20383;-76
2023/05/27 01:56:26;;;;;;;;;;;;;;;18.72;63.00;99360.91;5072655;28;19908;-77
2023/05/27 01:58:51;;;;;;;;;;;;;;;18.75;62.72;99356.94;5072553;28;19908;-76
2023/05/27 02:01:16;;;;;;;;;;;;;;;18.75;62.70;99363.09;5072824;28;19963;-76
2023/05/27 02:03:42;;;;;;;;;;;;;;;18.72;62.59;99369.75;5073282;28;20396;-76
2023/05/27 02:06:07;;;;;;;;;;;;;;;18.70;62.72;99371.84;5072363;28;19909;-77
2023/05/27 02:08:33;;;;;;;;;;;;;;;18.68;62.74;99373.13;5070821;28;20342;-77
2023/05/27 02:10:59;;;;;;;;;;;;;;;18.66;62.85;99378.69;5072143;28;19912;-77
2023/05/27 02:13:24;;;;;;;;;;;;;;;18.62;62.77;99374.06;5072044;28;19909;-76
2023/05/27 02:15:50;;;;;;;;;;;;;;;18.61;62.90;99375.06;5072051;28;19950;-76
2023/05/27 02:18:15;;;;;;;;;;;;;;;18.61;62.42;99380.41;5072084;28;19987;-77
2023/05/27 02:20:40;;;;;;;;;;;;;;;18.57;62.82;99376.56;5071799;28;20282;-77
2023/05/27 02:23:06;;;;;;;;;;;;;;;18.58;62.93;99368.34;5071710;28;19908;-76
2023/05/27 02:25:32;;;;;;;;;;;;;;;18.62;62.82;99371.38;5071718;28;19909;-77
2023/05/27 02:27:57;;;;;;;;;;;;;;;18.62;62.77;99363.34;5070302;28;19921;-76
2023/05/27 02:30:22;;;;;;;;;;;;;;;18.62;63.00;99366.03;5071789;28;19919;-75
2023/05/27 02:32:47;;;;;;;;;;;;;;;18.62;62.67;99366.03;5070480;28;19996;-77
2023/05/27 02:35:14;;;;;;;;;;;;;;;18.63;62.85;99376.50;5070604;28;19909;-78
2023/05/27 02:37:40;;;;;;;;;;;;;;;18.64;62.77;99363.94;5072205;28;19916;-74
2023/05/27 02:40:05;;;;;;;;;;;;;;;18.65;62.73;99370.91;5072166;28;20369;-76
2023/05/27 02:42:31;;;;;;;;;;;;;;;18.65;62.63;99365.56;5072092;28;19998;-76
2023/05/27 02:44:56;;;;;;;;;;;;;;;18.64;62.60;99370.09;5072024;28;19920;-76
2023/05/27 02:47:21;;;;;;;;;;;;;;;18.64;62.51;99364.75;5075593;28;19954;-76
2023/05/27 02:49:47;;;;;;;;;;;;;;;18.66;62.46;99367.19;5076166;28;19916;-77
2023/05/27 02:52:12;;;;;;;;;;;;;;;18.62;62.28;99361.50;5074881;28;19908;-76
2023/05/27 02:54:37;;;;;;;;;;;;;;;18.63;62.44;99363.13;5076150;28;19912;-76
2023/05/27 02:57:02;;;;;;;;;;;;;;;18.63;62.43;99351.63;5076158;28;19908;-76
2023/05/27 02:59:28;;;;;;;;;;;;;;;18.65;62.30;99360.22;5076076;28;19908;-76
2023/05/27 03:01:53;;;;;;;;;;;;;;;18.68;62.33;99357.88;5075971;28;20351;-76
2023/05/27 03:04:20;;;;;;;;;;;;;;;18.72;62.40;99358.22;5076356;28;19954;-76
2023/05/27 03:06:46;;;;;;;;;;;;;;;18.75;62.32;99359.63;5076396;28;19966;-76
2023/05/27 03:09:11;;;;;;;;;;;;;;;18.75;62.22;99365.78;5076306;28;19912;-77
2023/05/27 03:11:36;;;;;;;;;;;;;;;18.73;62.26;99366.00;5075817;28;19915;-77
2023/05/27 03:14:01;;;;;;;;;;;;;;;18.70;62.53;99366.47;5076142;28;20347;-76
2023/05/27 03:16:27;;;;;;;;;;;;;;;18.67;62.62;99361.59;5076599;28;19913;-77
2023/05/27 03:18:52;;;;;;;;;;;;;;;18.68;62.71;99365.09;5076086;28;19915;-76
2023/05/27 03:21:17;;;;;;;;;;;;;;;18.68;62.66;99365.91;5075656;28;20278;-76
2023/05/27 03:23:43;;;;;;;;;;;;;;;18.69;62.48;99369.41;5075900;28;19904;-76
2023/05/27 03:26:08;;;;;;;;;;;;;;;18.70;62.55;99371.03;5075324;28;19908;-76
2023/05/27 03:28:33;;;;;;;;;;;;;;;18.68;62.71;99371.25;5075195;28;20442;-76
2023/05/27 03:30:59;;;;;;;;;;;;;;;18.70;62.75;99373.69;5075491;28;19935;-76
2023/05/27 03:33:24;;;;;;;;;;;;;;;18.72;62.24;99369.75;5075774;28;20280;-77
2023/05/27 03:35:50;;;;;;;;;;;;;;;18.72;62.27;99371.59;5075398;28;19909;-75
2023/05/27 03:38:15;;;;;;;;;;;;;;;18.75;62.25;99373.81;5075239;28;19908;-77
2023/05/27 03:40:40;;;;;;;;;;;;;;;18.76;62.26;99378.09;5075106;28;19908;-77
2023/05/27 03:43:05;;;;;;;;;;;;;;;18.81;62.11;99377.41;5075549;28;20305;-78
2023/05/27 03:45:31;;;;;;;;;;;;;;;18.81;62.11;99380.88;5075627;28;19953;-77
2023/05/27 03:47:56;;;;;;;;;;;;;;;18.87;62.05;99382.63;5075072;28;19913;-77
2023/05/27 03:50:21;;;;;;;;;;;;;;;18.92;61.71;99381.91;5075001;28;19912;-77
2023/05/27 03:52:46;;;;;;;;;;;;;;;18.95;61.59;99390.28;5074998;28;19912;-77
2023/05/27 03:55:12;;;;;;;;;;;;;;;18.96;61.67;99394.56;5074935;28;19911;-76
2023/05/27 03:57:37;;;;;;;;;;;;;;;18.99;61.34;99394.09;5073678;28;20432;-75
2023/05/27 04:00:07;;;;;;;;;;;;;;;19.02;61.33;99393.63;5074729;28;19983;-77
2023/05/27 04:02:32;;;;;;;;;;;;;;;19.01;61.33;99392.00;5074757;28;19908;-77
2023/05/27 04:04:59;;;;;;;;;;;;;;;19.09;61.00;99392.69;5074536;28;19999;-78
2023/05/27 04:07:26;;;;;;;;;;;;;;;19.15;61.22;99407.81;5074476;28;19912;-77
2023/05/27 04:09:51;;;;;;;;;;;;;;;19.14;61.13;99406.16;5074310;28;19912;-78
2023/05/27 04:12:17;;;;;;;;;;;;;;;19.17;61.12;99403.03;5074423;28;19915;-77
2023/05/27 04:14:42;;;;;;;;;;;;;;;19.18;61.06;99405.47;5074175;28;19943;-76
2023/05/27 04:17:08;;;;;;;;;;;;;;;19.23;61.16;99402.06;5074034;28;19900;-77
2023/05/27 04:19:34;;;;;;;;;;;;;;;19.22;61.03;99401.25;5073915;28;19995;-77
2023/05/27 04:21:59;;;;;;;;;;;;;;;19.24;60.99;99404.50;5074018;28;19908;-77
2023/05/27 04:24:24;;;;;;;;;;;;;;;19.22;61.17;99408.47;5074117;28;20316;-77
2023/05/27 04:26:50;;;;;;;;;;;;;;;19.25;61.15;99416.03;5073614;28;19966;-77
2023/05/27 04:29:15;;;;;;;;;;;;;;;19.30;60.74;99413.47;5074572;28;19916;-77
2023/05/27 04:31:40;;;;;;;;;;;;;;;19.34;60.74;99409.28;5074187;28;19908;-77
2023/05/27 04:34:06;;;;;;;;;;;;;;;19.36;60.77;99413.34;5074118;28;19915;-76
2023/05/27 04:36:34;;;;;;;;;;;;;;;19.41;60.81;99419.84;5074352;28;20403;-76
2023/05/27 04:39:01;;;;;;;;;;;;;;;19.42;60.76;99416.94;5074061;28;19948;-76
2023/05/27 04:41:28;;;;;;;;;;;;;;;19.46;60.56;99418.09;5074080;28;19916;-77
2023/05/27 04:43:53;;;;;;;;;;;;;;;19.43;60.69;99415.88;5073894;28;19950;-77
2023/05/27 04:46:18;;;;;;;;;;;;;;;19.41;60.74;99414.50;5074366;28;19940;-76
2023/05/27 04:48:46;;;;;;;;;;;;;;;19.45;60.61;99418.31;5074315;28;19912;-76
2023/05/27 04:51:11;;;;;;;;;;;;;;;19.51;60.70;99430.75;5073607;28;20355;-77
2023/05/27 04:53:36;;;;;;;;;;;;;;;19.56;60.60;99422.84;5074265;28;19908;-76
2023/05/27 04:56:01;;;;;;;;;;;;;;;19.60;60.56;99432.03;5074597;28;19999;-76
2023/05/27 04:58:28;;;;;;;;;;;;;;;19.56;60.82;99422.84;5073717;28;19911;-77
2023/05/27 05:00:54;;;;;;;;;;;;;;;19.52;61.15;99430.53;5073813;28;19958;-77
2023/05/27 05:03:26;;;;;;;;;;;;;;;19.56;60.68;99434.38;5073800;28;19908;-76
2023/05/27 05:05:52;;;;;;;;;;;;;;;19.60;60.30;99424.00;5073932;28;20341;-76
2023/05/27 05:08:20;;;;;;;;;;;;;;;19.60;60.78;99440.88;5073424;28;19995;-77
2023/05/27 05:10:48;;;;;;;;;;;;;;;19.64;60.20;99441.22;5071944;28;19917;-76
2023/05/27 05:13:14;;;;;;;;;;;;;;;19.66;60.07;99439.09;5073318;28;19908;-76
2023/05/27 05:15:40;;;;;;;;;;;;;;;19.67;60.74;99443.41;5073376;28;19908;-76
2023/05/27 05:18:05;;;;;;;;;;;;;;;19.67;60.63;99446.91;5073596;28;20370;-76
2023/05/27 05:20:31;;;;;;;;;;;;;;;19.64;61.04;99449.25;5073273;28;19908;-76
2023/05/27 05:22:56;;;;;;;;;;;;;;;19.53;61.33;99448.25;5073195;28;19991;-76
2023/05/27 05:25:22;;;;;;;;;;;;;;;19.48;61.07;99452.66;5073299;28;20073;-75
2023/05/27 05:27:47;;;;;;;;;;;;;;;19.45;62.14;99451.28;5072920;28;19973;-75
2023/05/27 05:30:12;;;;;;;;;;;;;;;19.48;62.01;99458.81;5072987;28;19912;-76
2023/05/27 05:32:38;;;;;;;;;;;;;;;19.50;61.91;99450.56;5073123;28;19908;-76
2023/05/27 05:35:03;;;;;;;;;;;;;;;19.56;61.97;99453.13;5072912;28;19915;-76
2023/05/27 05:37:28;;;;;;;;;;;;;;;19.60;61.72;99462.31;5071658;28;19909;-75
2023/05/27 05:39:55;;;;;;;;;;;;;;;19.59;62.26;99458.00;5073509;28;19909;-76
2023/05/27 05:42:20;;;;;;;;;;;;;;;19.56;62.27;99457.66;5072814;28;19982;-76
2023/05/27 05:44:46;;;;;;;;;;;;;;;19.59;62.01;99463.34;5072646;28;20397;-76
2023/05/27 05:47:11;;;;;;;;;;;;;;;19.61;62.00;99463.13;5072637;28;19908;-77
2023/05/27 05:49:36;;;;;;;;;;;;;;;19.58;62.13;99458.25;5072557;28;20385;-76
2023/05/27 05:52:01;;;;;;;;;;;;;;;19.57;62.07;99464.66;5072823;28;19957;-76
2023/05/27 05:54:27;;;;;;;;;;;;;;;19.55;61.88;99467.56;5072595;28;20336;-77
2023/05/27 05:56:52;;;;;;;;;;;;;;;19.54;61.97;99457.09;5072805;28;19916;-76
2023/05/27 05:59:17;;;;;;;;;;;;;;;19.57;62.49;99467.31;5072485;28;19916;-76
2023/05/27 06:01:43;;;;;;;;;;;;;;;19.62;61.97;99472.78;5072383;28;19915;-76
2023/05/27 06:04:08;;;;;;;;;;;;;;;19.65;62.02;99472.31;5072740;28;20507;-77
2023/05/27 06:06:33;;;;;;;;;;;;;;;19.68;61.54;99475.31;5073317;28;19909;-76
2023/05/27 06:08:58;;;;;;;;;;;;;;;19.70;60.69;99474.25;5071468;28;19915;-76
2023/05/27 06:11:25;;;;;;;;;;;;;;;19.65;60.69;99474.97;5072381;28;19908;-77
2023/05/27 06:13:50;;;;;;;;;;;;;;;19.70;60.62;99479.63;5072261;28;19994;-77
2023/05/27 06:16:16;;;;;;;;;;;;;;;19.72;60.54;99478.34;5072323;28;20061;-76
2023/05/27 06:18:45;;;;;;;;;;;;;;;19.74;60.55;99480.78;5072110;28;20444;-76
2023/05/27 06:21:10;;;;;;;;;;;;;;;19.67;60.37;99479.03;5072046;28;20002;-76
2023/05/27 06:23:36;;;;;;;;;;;;;;;19.70;60.29;99476.94;5072273;28;19964;-76
2023/05/27 06:26:02;;;;;;;;;;;;;;;19.64;60.82;99484.88;5072080;28;19909;-76
2023/05/27 06:28:27;;;;;;;;;;;;;;;19.65;60.83;99486.50;5071746;28;19985;-76
2023/05/27 06:30:52;;;;;;;;;;;;;;;19.67;60.86;99480.91;5071885;28;20286;-75
2023/05/27 06:33:18;;;;;;;;;;;;;;;19.67;60.88;99483.59;5072005;28;19982;-76
2023/05/27 06:35:44;;;;;;;;;;;;;;;19.72;60.80;99488.22;5070901;28;20353;-76
2023/05/27 06:38:09;;;;;;;;;;;;;;;19.74;60.54;99494.16;5072154;28;19916;-76
2023/05/27 06:40:34;;;;;;;;;;;;;;;19.74;60.58;99488.81;5072123;28;19909;-75
2023/05/27 06:43:00;;;;;;;;;;;;;;;19.77;60.74;99494.50;5072085;28;19965;-77
2023/05/27 06:45:25;;;;;;;;;;;;;;;19.85;60.66;99488.75;5072610;28;19908;-75
2023/05/27 06:47:50;;;;;;;;;;;;;;;19.92;60.47;99488.63;5072564;28;20001;-76
2023/05/27 06:50:15;;;;;;;;;;;;;;;20.00;60.42;99494.41;5071789;28;20366;-76
2023/05/27 06:52:41;;;;;;;;;;;;;;;20.09;60.37;99483.31;5071005;28;19908;-75
2023/05/27 06:55:06;;;;;;;;;;;;;;;20.15;60.05;99480.47;5072158;28;19908;-76
2023/05/27 06:57:31;;;;;;;;;;;;;;;20.23;59.81;99485.44;5071494;28;19908;-76
2023/05/27 06:59:57;;;;;;;;;;;;;;;20.26;59.84;99487.63;5071566;28;19919;-76
2023/05/27 07:02:22;;;;;;;;;;;;;;;20.32;59.79;99485.84;5070561;28;19912;-75
2023/05/27 07:04:47;;;;;;;;;;;;;;;20.39;59.90;99486.53;5071813;28;19977;-76
2023/05/27 07:07:12;;;;;;;;;;;;;;;20.41;59.63;99480.94;5071691;28;19908;-76
2023/05/27 07:09:38;;;;;;;;;;;;;;;20.47;59.11;99486.13;5070535;28;19994;-76
2023/05/27 07:12:03;;;;;;;;;;;;;;;20.48;59.02;99487.75;5071950;28;19908;-76
2023/05/27 07:14:28;;;;;;;;;;;;;;;20.51;59.11;99489.97;5072183;28;19908;-77
2023/05/27 07:16:54;;;;;;;;;;;;;;;20.59;59.39;99491.41;5071695;28;19908;-76
2023/05/27 07:19:19;;;;;;;;;;;;;;;20.62;59.09;99489.06;5071789;28;19940;-76
2023/05/27 07:21:45;;;;;;;;;;;;;;;20.70;58.90;99482.47;5070544;28;19915;-77
2023/05/27 07:24:10;;;;;;;;;;;;;;;20.75;58.81;99479.06;5071295;28;19909;-77
2023/05/27 07:26:36;;;;;;;;;;;;;;;20.80;58.62;99484.50;5071149;28;19950;-77
2023/05/27 07:29:01;;;;;;;;;;;;;;;20.79;58.47;99483.69;5070944;28;19920;-76
2023/05/27 07:31:27;;;;;;;;;;;;;;;20.70;58.36;99481.66;5071424;28;19913;-77
2023/05/27 07:33:53;;;;;;;;;;;;;;;20.63;58.65;99485.31;5075014;28;19915;-77
2023/05/27 07:36:18;;;;;;;;;;;;;;;20.58;58.54;99482.56;5074771;28;19919;-76
2023/05/27 07:38:43;;;;;;;;;;;;;;;20.55;58.67;99479.56;5074632;28;19912;-76
2023/05/27 07:41:09;;;;;;;;;;;;;;;20.54;58.65;99481.41;5074715;28;19908;-76
2023/05/27 07:43:34;;;;;;;;;;;;;;;20.51;58.69;99483.78;5074705;28;20365;-76
2023/05/27 07:46:00;;;;;;;;;;;;;;;20.52;58.67;99485.41;5074676;28;20348;-75
2023/05/27 07:48:25;;;;;;;;;;;;;;;20.52;59.06;99475.50;5073414;28;19909;-76
2023/05/27 07:50:50;;;;;;;;;;;;;;;20.50;58.87;99484.84;5074436;28;19957;-77
2023/05/27 07:53:16;;;;;;;;;;;;;;;20.44;59.11;99486.63;5074309;28;20389;-76
2023/05/27 07:55:41;;;;;;;;;;;;;;;20.47;59.71;99488.00;5074438;28;19908;-76
2023/05/27 07:58:06;;;;;;;;;;;;;;;20.46;59.71;99484.50;5074400;28;19908;-77
2023/05/27 08:00:32;;;;;;;;;;;;;;;20.41;60.14;99497.03;5074536;28;20292;-76
2023/05/27 08:02:57;;;;;;;;;;;;;;;20.41;60.54;99499.72;5074120;28;19907;-77
2023/05/27 08:05:22;;;;;;;;;;;;;;;20.43;60.70;99503.78;5074302;28;19908;-77
2023/05/27 08:07:48;;;;;;;;;;;;;;;20.42;60.84;99501.34;5074732;28;19955;-77
2023/05/27 08:10:13;;;;;;;;;;;;;;;20.43;60.79;99511.81;5071034;28;20359;-77
2023/05/27 08:12:38;;;;;;;;;;;;;;;20.43;60.99;99513.69;5061539;28;19916;-77
2023/05/27 08:15:04;;;;;;;;;;;;;;;20.39;61.34;99513.34;5071571;28;19952;-76
2023/05/27 08:17:29;;;;;;;;;;;;;;;20.39;61.14;99516.03;5072139;28;19947;-76
2023/05/27 08:19:54;;;;;;;;;;;;;;;20.38;62.00;99524.28;5068371;28;20340;-77
2023/05/27 08:22:20;;;;;;;;;;;;;;;20.37;63.12;99514.63;5072433;28;19944;-76
2023/05/27 08:24:45;;;;;;;;;;;;;;;20.35;62.54;99522.91;5073315;28;19920;-75
2023/05/27 08:27:13;;;;;;;;;;;;;;;20.30;62.54;99512.91;5072723;28;20416;-77
2023/05/27 08:29:38;;;;;;;;;;;;;;;20.20;62.80;99518.09;5071574;28;19974;-76
2023/05/27 08:32:03;;;;;;;;;;;;;;;20.20;62.07;99526.13;5071450;28;20335;-76
2023/05/27 08:34:29;;;;;;;;;;;;;;;20.23;62.00;99516.81;5061321;28;19909;-76
2023/05/27 08:36:54;;;;;;;;;;;;;;;20.27;61.68;99521.44;5063253;28;19973;-76
2023/05/27 08:39:20;;;;;;;;;;;;;;;20.29;61.64;99519.34;5068227;28;19916;-77
2023/05/27 08:41:45;;;;;;;;;;;;;;;20.31;61.09;99517.22;5069860;28;20373;-77
2023/05/27 08:44:10;;;;;;;;;;;;;;;20.30;60.58;99515.59;5071715;28;19913;-76
2023/05/27 08:46:36;;;;;;;;;;;;;;;20.30;60.70;99514.78;5071930;28;20030;-76
2023/05/27 08:49:01;;;;;;;;;;;;;;;20.34;61.11;99512.44;5069901;28;19966;-76
2023/05/27 08:51:27;;;;;;;;;;;;;;;20.39;60.65;99512.50;5064156;28;20377;-77
2023/05/27 08:53:52;;;;;;;;;;;;;;;20.45;60.52;99511.56;5066954;28;19913;-76
2023/05/27 08:56:21;;;;;;;;;;;;;;;20.47;60.12;99514.81;5068733;28;20003;-77
2023/05/27 08:58:46;;;;;;;;;;;;;;;20.51;59.80;99506.06;5067547;28;19922;-76
2023/05/27 09:01:13;;;;;;;;;;;;;;;20.53;59.79;99506.63;5064948;28;19982;-77
2023/05/27 09:03:38;;;;;;;;;;;;;;;20.53;59.43;99503.13;5065661;28;19963;-76
2023/05/27 09:06:04;;;;;;;;;;;;;;;20.59;59.75;99502.97;5070604;28;19939;-76
2023/05/27 09:08:30;;;;;;;;;;;;;;;20.63;59.87;99497.91;5070448;28;19920;-76
2023/05/27 09:10:55;;;;;;;;;;;;;;;20.66;59.51;99505.47;5067125;28;20444;-76
2023/05/27 09:13:27;;;;;;;;;;;;;;;20.68;59.58;99499.88;5071031;28;20312;-76
2023/05/27 09:16:03;;;;;;;;;;;;;;;20.63;59.56;99500.59;5071693;28;20007;-76
2023/05/27 09:18:29;;;;;;;;;;;;;;;20.66;58.94;99497.44;5069808;28;19916;-76
2023/05/27 09:20:57;;;;;;;;;;;;;;;20.69;58.78;99496.94;5070206;28;19912;-75
2023/05/27 09:23:23;;;;;;;;;;;;;;;20.68;58.62;99486.47;5061139;28;20003;-76
2023/05/27 09:25:49;;;;;;;;;;;;;;;20.71;58.64;99488.66;5063259;28;20010;-76
2023/05/27 09:28:25;;;;;;;;;;;;;;;20.71;58.70;99483.28;5071406;28;20003;-76
2023/05/27 09:31:01;;;;;;;;;;;;;;;20.77;58.98;99490.34;5056531;28;20007;-76
2023/05/27 09:33:26;;;;;;;;;;;;;;;20.80;59.02;99487.16;5061499;28;20347;-76
2023/05/27 09:35:52;;;;;;;;;;;;;;;20.82;59.09;99487.78;5067188;28;19916;-77
2023/05/27 09:38:17;;;;;;;;;;;;;;;20.88;58.81;99484.91;5070181;28;19962;-75
2023/05/27 09:40:45;;;;;;;;;;;;;;;20.93;59.35;99484.97;5058871;28;19916;-76
2023/05/27 09:43:17;;;;;;;;;;;;;;;21.01;59.13;99477.56;5070217;28;19919;-75
2023/05/27 09:45:42;;;;;;;;;;;;;;;21.08;58.55;99480.88;5070125;28;19998;-76
2023/05/27 09:48:09;;;;;;;;;;;;;;;21.12;59.21;99477.47;5069285;28;20045;-76
2023/05/27 09:50:35;;;;;;;;;;;;;;;21.21;59.08;99475.97;5067708;28;19917;-77
2023/05/27 09:53:02;;;;;;;;;;;;;;;21.26;59.59;99477.94;5066486;28;19944;-76
2023/05/27 09:55:28;;;;;;;;;;;;;;;21.29;59.38;99469.38;5045117;28;20013;-77
2023/05/27 09:57:54;;;;;;;;;;;;;;;21.29;59.58;99469.38;5035388;28;20425;-76
2023/05/27 10:00:19;;;;;;;;;;;;;;;21.28;60.32;99470.44;5042667;28;20003;-76
2023/05/27 10:02:46;;;;;;;;;;;;;;;21.31;60.09;99461.06;5049232;28;20408;-77
2023/05/27 10:05:12;;;;;;;;;;;;;;;21.37;61.34;99460.88;5045207;28;20374;-77
2023/05/27 10:07:39;;;;;;;;;;;;;;;21.41;60.31;99453.94;5043587;28;19920;-76
2023/05/27 10:10:06;;;;;;;;;;;;;;;21.46;59.68;99454.00;5045721;28;19936;-76
2023/05/27 10:12:32;;;;;;;;;;;;;;;21.49;60.47;99458.88;5046791;28;19912;-76
2023/05/27 10:14:57;;;;;;;;;;;;;;;21.56;59.82;99450.66;5046675;28;19920;-76
2023/05/27 10:17:23;;;;;;;;;;;;;;;21.57;59.62;99449.59;5045092;28;20293;-76
2023/05/27 10:19:52;;;;;;;;;;;;;;;21.62;59.13;99455.03;5049370;28;19917;-76
2023/05/27 10:22:20;;;;;;;;;;;;;;;21.63;58.00;99453.13;5050347;28;20004;-77
2023/05/27 10:24:48;;;;;;;;;;;;;;;21.65;57.97;99443.75;5048701;28;20350;-76
2023/05/27 10:27:13;;;;;;;;;;;;;;;21.75;57.62;99445.75;5048674;28;20309;-76
2023/05/27 10:29:39;;;;;;;;;;;;;;;21.83;57.66;99448.78;5051069;28;19923;-76
2023/05/27 10:32:04;;;;;;;;;;;;;;;21.97;57.57;99449.19;5037355;28;19913;-76
2023/05/27 10:34:36;;;;;;;;;;;;;;;22.06;57.26;99441.50;5049536;28;19956;-76
2023/05/27 10:37:02;;;;;;;;;;;;;;;22.06;57.15;99444.19;5044545;28;19951;-76
2023/05/27 10:39:27;;;;;;;;;;;;;;;22.06;57.39;99436.94;5043456;28;19947;-77
2023/05/27 10:41:53;;;;;;;;;;;;;;;22.11;57.42;99434.28;5046489;28;19920;-76
2023/05/27 10:44:48;;;;;;;;;;;;;;;22.17;57.21;99435.97;5045071;28;20487;-77
2023/05/27 10:47:13;;;;;;;;;;;;;;;22.14;56.35;99431.09;5040797;28;19913;-76
2023/05/27 10:49:39;;;;;;;;;;;;;;;22.17;56.12;99430.56;5049700;28;19923;-77
2023/05/27 10:52:06;;;;;;;;;;;;;;;22.35;56.00;99426.72;5049708;28;19912;-76
2023/05/27 10:54:33;;;;;;;;;;;;;;;22.47;56.19;99415.75;5043082;28;19913;-76
2023/05/27 10:56:59;;;;;;;;;;;;;;;22.64;55.44;99418.28;5038894;28;20373;-75
2023/05/27 10:59:33;;;;;;;;;;;;;;;22.75;55.86;99411.91;5048109;28;19919;-77
2023/05/27 11:01:58;;;;;;;;;;;;;;;22.82;55.93;99407.94;5042359;28;19939;-78
2023/05/27 11:04:24;;;;;;;;;;;;;;;22.88;55.74;99406.06;5047046;28;20382;-77
2023/05/27 11:07:02;;;;;;;;;;;;;;;22.93;55.43;99416.88;5047944;28;19909;-77
2023/05/27 11:09:27;;;;;;;;;;;;;;;22.96;55.50;99412.84;5038586;28;19920;-77
2023/05/27 11:11:53;;;;;;;;;;;;;;;23.00;55.27;99379.75;5042854;28;19916;-77
2023/05/27 11:14:19;;;;;;;;;;;;;;;23.59;54.13;99403.69;5050728;28;20011;-75
2023/05/27 11:16:51;;;;;;;;;;;;;;;23.81;53.45;99398.09;5046031;28;20042;-75
2023/05/27 11:19:17;;;;;;;;;;;;;;;23.71;53.50;99400.75;5052991;28;20417;-76
2023/05/27 11:21:46;;;;;;;;;;;;;;;23.71;53.63;99392.66;5053856;28;19960;-77
2023/05/27 11:24:18;;;;;;;;;;;;;;;24.00;51.49;99396.47;5043650;28;19920;-75
2023/05/27 11:26:46;;;;;;;;;;;;;;;24.09;52.01;99385.97;5050123;28;20336;-74
2023/05/27 11:29:11;;;;;;;;;;;;;;;24.65;50.78;99377.84;5046958;28;19917;-73
2023/05/27 11:31:40;;;;;;;;;;;;;;;24.97;49.88;99383.69;5039138;28;19920;-74
2023/05/27 11:34:11;;;;;;;;;;;;;;;25.13;49.84;99383.63;5047591;28;19919;-77
2023/05/27 11:36:36;;;;;;;;;;;;;;;25.67;48.01;99378.25;5051129;28;20410;-75
2023/05/27 11:39:02;;;;;;;;;;;;;;;25.91;47.95;99381.84;5040156;28;20058;-76
2023/05/27 11:41:29;;;;;;;;;;;;;;;25.99;47.72;99369.63;5051681;28;19916;-74
2023/05/27 11:43:55;;;;;;;;;;;;;;;26.20;46.84;99375.69;5052895;28;19920;-74
2023/05/27 11:46:21;;;;;;;;;;;;;;;26.49;46.26;99375.69;5040677;28;19912;-75
2023/05/27 11:48:47;;;;;;;;;;;;;;;26.35;45.33;99372.88;5037732;28;19913;-76
2023/05/27 11:51:12;;;;;;;;;;;;;;;26.08;45.87;99369.84;5046861;28;19917;-76
2023/05/27 11:53:44;;;;;;;;;;;;;;;26.27;46.64;99374.25;5047149;28;20312;-77
2023/05/27 11:56:09;;;;;;;;;;;;;;;25.89;45.12;99367.78;5044099;28;19912;-76
2023/05/27 11:58:34;;;;;;;;;;;;;;;25.68;45.70;99369.03;5051174;28;19920;-76
2023/05/27 12:01:00;;;;;;;;;;;;;;;25.58;47.31;99371.78;5049168;28;19995;-76
2023/05/27 12:03:25;;;;;;;;;;;;;;;25.77;46.30;99364.66;5053233;28;19996;-76
2023/05/27 12:05:50;;;;;;;;;;;;;;;26.30;45.11;99359.34;5050058;28;19963;-76
2023/05/27 12:08:16;;;;;;;;;;;;;;;26.53;45.30;99366.72;5045794;28;19913;-75
2023/05/27 12:10:41;;;;;;;;;;;;;;;26.64;45.24;99362.00;5045650;28;19913;-77
2023/05/27 12:13:06;;;;;;;;;;;;;;;26.72;45.52;99358.66;5040009;28;19913;-76
2023/05/27 12:15:32;;;;;;;;;;;;;;;26.93;45.07;99356.53;5047904;28;20949;-76
2023/05/27 12:17:57;;;;;;;;;;;;;;;26.68;44.88;99351.41;5049404;28;19952;-76
2023/05/27 12:20:27;;;;;;;;;;;;;;;26.54;45.94;99348.56;5048154;28;19973;-76
2023/05/27 12:22:52;;;;;;;;;;;;;;;26.84;45.30;99342.81;5037888;28;20317;-76
2023/05/27 12:25:17;;;;;;;;;;;;;;;27.01;43.80;99344.28;5046627;28;19917;-76
2023/05/27 12:27:44;;;;;;;;;;;;;;;27.37;44.27;99331.84;5052388;28;20366;-74
2023/05/27 12:30:09;;;;;;;;;;;;;;;27.48;42.23;99333.31;5048653;28;19923;-76
2023/05/27 12:32:34;;;;;;;;;;;;;;;27.64;43.35;99320.38;5037671;28;19921;-75
2023/05/27 12:35:00;;;;;;;;;;;;;;;27.73;43.54;99318.59;5040440;28;19920;-77
2023/05/27 12:37:27;;;;;;;;;;;;;;;27.76;43.67;99314.47;5043861;28;20309;-77
2023/05/27 12:39:53;;;;;;;;;;;;;;;27.89;43.28;99302.06;5051626;28;19908;-76
2023/05/27 12:42:18;;;;;;;;;;;;;;;27.84;41.10;99306.47;5037569;28;19909;-76